createdAt,value
2022-07-30T00:01:45.292Z,5.68
2022-07-30T00:04:11.940Z,6.82
2022-07-30T00:06:39.813Z,5.22
2022-07-30T00:09:06.615Z,8.35
2022-07-30T00:11:33.319Z,4.07
2022-07-30T00:14:00.458Z,6.57
2022-07-30T00:16:27.896Z,4.18
2022-07-30T00:18:54.695Z,5.07
2022-07-30T00:21:35.608Z,7.13
2022-07-30T00:24:04.487Z,5.63
2022-07-30T00:26:31.243Z,5.90
2022-07-30T00:28:57.848Z,3.25
2022-07-30T00:31:24.484Z,4.13
2022-07-30T00:33:51.130Z,5.50
2022-07-30T00:36:17.796Z,4.35
2022-07-30T00:38:44.458Z,6.55
2022-07-30T00:41:11.478Z,4.60
2022-07-30T00:43:39.319Z,6.28
2022-07-30T00:46:06.177Z,5.97
2022-07-30T00:48:32.954Z,2.67
2022-07-30T00:50:59.625Z,4.25
2022-07-30T00:53:26.709Z,4.70
2022-07-30T00:55:53.410Z,6.30
2022-07-30T00:58:20.080Z,8.02
2022-07-30T01:00:46.842Z,4.97
2022-07-30T01:03:13.688Z,3.90
2022-07-30T01:05:40.296Z,5.53
2022-07-30T01:08:07.005Z,3.90
2022-07-30T01:10:33.789Z,5.20
2022-07-30T01:13:01.939Z,6.13
2022-07-30T01:15:29.582Z,3.90
2022-07-30T01:18:00.243Z,3.25
2022-07-30T01:20:43.372Z,5.47
2022-07-30T01:23:35.709Z,3.85
2022-07-30T01:26:09.193Z,5.10
2022-07-30T01:28:42.738Z,4.32
2022-07-30T01:31:12.904Z,5.78
2022-07-30T01:33:42.859Z,3.83
2022-07-30T01:36:11.830Z,3.45
2022-07-30T01:38:39.697Z,6.15
2022-07-30T01:41:07.897Z,3.92
2022-07-30T01:43:35.800Z,5.55
2022-07-30T01:46:03.947Z,4.63
2022-07-30T01:48:34.953Z,7.13
2022-07-30T01:51:05.920Z,5.15
2022-07-30T01:53:36.624Z,6.32
2022-07-30T01:56:05.215Z,5.05
2022-07-30T01:58:39.886Z,4.60
2022-07-30T02:01:07.227Z,5.80
2022-07-30T02:03:34.834Z,8.32
2022-07-30T02:06:26.364Z,6.25
2022-07-30T02:08:56.349Z,4.03
2022-07-30T02:11:41.831Z,4.68
2022-07-30T02:14:17.387Z,8.35
2022-07-30T02:16:47.613Z,4.65
2022-07-30T02:19:16.935Z,5.82
2022-07-30T02:21:50.548Z,5.13
2022-07-30T02:24:23.659Z,5.00
2022-07-30T02:27:01.869Z,5.35
2022-07-30T02:29:30.008Z,4.35
2022-07-30T02:31:58.443Z,9.15
2022-07-30T02:34:25.700Z,5.30
2022-07-30T02:36:54.002Z,5.40
2022-07-30T02:39:21.884Z,5.25
2022-07-30T02:41:50.140Z,4.90
2022-07-30T02:44:20.082Z,6.22
2022-07-30T02:46:49.567Z,4.97
2022-07-30T02:49:19.171Z,5.60
2022-07-30T02:51:49.264Z,6.38
2022-07-30T02:54:19.389Z,6.97
2022-07-30T02:56:51.312Z,9.32
2022-07-30T02:59:21.061Z,6.00
2022-07-30T03:01:48.838Z,6.13
2022-07-30T03:04:19.066Z,6.05
2022-07-30T03:06:46.729Z,7.72
2022-07-30T03:09:16.906Z,5.20
2022-07-30T03:11:44.289Z,6.45
2022-07-30T03:14:11.325Z,7.68
2022-07-30T03:16:38.933Z,6.90
2022-07-30T03:19:12.210Z,7.32
2022-07-30T03:21:41.255Z,7.85
2022-07-30T03:24:11.910Z,5.97
2022-07-30T03:26:40.089Z,6.72
2022-07-30T03:29:08.589Z,7.32
2022-07-30T03:31:38.574Z,7.68
2022-07-30T03:34:07.338Z,8.63
2022-07-30T03:36:35.716Z,6.88
2022-07-30T03:39:03.835Z,7.88
2022-07-30T03:41:31.762Z,6.10
2022-07-30T03:44:00.366Z,8.80
2022-07-30T03:46:28.181Z,7.38
2022-07-30T03:48:55.231Z,8.30
2022-07-30T03:51:22.404Z,6.18
2022-07-30T03:53:51.505Z,6.05
2022-07-30T03:56:18.504Z,6.95
2022-07-30T03:58:45.346Z,6.20
2022-07-30T04:01:12.401Z,10.57
2022-07-30T04:03:39.175Z,7.00
2022-07-30T04:06:06.018Z,7.57
2022-07-30T04:08:32.742Z,6.30
2022-07-30T04:10:59.452Z,6.00
2022-07-30T04:13:26.159Z,4.18
2022-07-30T04:16:41.231Z,6.13
2022-07-30T04:19:09.427Z,6.97
2022-07-30T04:21:37.665Z,5.60
2022-07-30T04:24:05.816Z,7.82
2022-07-30T04:26:35.773Z,7.63
2022-07-30T04:29:05.691Z,9.02
2022-07-30T04:31:40.463Z,7.43
2022-07-30T04:34:08.487Z,7.00
2022-07-30T04:36:35.757Z,8.27
2022-07-30T04:39:03.285Z,8.23
2022-07-30T04:41:29.962Z,8.43
2022-07-30T04:44:11.213Z,6.15
2022-07-30T04:46:39.027Z,6.18
2022-07-30T04:49:05.844Z,8.73
2022-07-30T04:51:35.642Z,6.72
2022-07-30T04:54:04.883Z,6.53
2022-07-30T04:56:34.992Z,6.15
2022-07-30T04:59:02.428Z,6.70
2022-07-30T05:01:40.687Z,5.53
2022-07-30T05:04:09.637Z,7.32
2022-07-30T05:06:37.809Z,6.90
2022-07-30T05:09:04.597Z,6.38
2022-07-30T05:11:31.566Z,10.48
2022-07-30T05:13:58.330Z,6.88
2022-07-30T05:16:25.331Z,6.30
2022-07-30T05:18:52.102Z,6.03
2022-07-30T05:21:18.871Z,6.07
2022-07-30T05:23:50.591Z,7.55
2022-07-30T05:26:21.214Z,5.50
2022-07-30T05:28:53.616Z,6.68
2022-07-30T05:31:22.105Z,6.25
2022-07-30T05:33:48.809Z,6.95
2022-07-30T05:36:15.649Z,5.80
2022-07-30T05:38:42.331Z,9.75
2022-07-30T05:41:21.401Z,6.78
2022-07-30T05:43:56.852Z,7.30
2022-07-30T05:46:24.124Z,8.50
2022-07-30T05:48:50.977Z,9.50
2022-07-30T05:51:19.694Z,6.45
2022-07-30T05:53:46.915Z,7.20
2022-07-30T05:56:14.025Z,4.25
2022-07-30T05:58:41.262Z,7.38
2022-07-30T06:01:08.536Z,6.68
2022-07-30T06:03:35.738Z,8.35
2022-07-30T06:06:05.642Z,6.95
2022-07-30T06:08:32.812Z,9.70
2022-07-30T06:10:59.981Z,9.82
2022-07-30T06:13:27.168Z,6.45
2022-07-30T06:15:54.249Z,7.65
2022-07-30T06:18:23.319Z,9.45
2022-07-30T06:20:51.879Z,8.20
2022-07-30T06:23:19.217Z,7.18
2022-07-30T06:25:46.298Z,7.22
2022-07-30T06:28:35.185Z,6.70
2022-07-30T06:31:00.541Z,5.60
2022-07-30T06:33:27.648Z,8.48
2022-07-30T06:35:54.789Z,8.48
2022-07-30T06:38:21.822Z,6.65
2022-07-30T06:40:48.870Z,8.40
2022-07-30T06:43:15.585Z,9.20
2022-07-30T06:45:42.206Z,8.70
2022-07-30T06:48:09.117Z,8.23
2022-07-30T06:50:37.189Z,10.48
2022-07-30T06:53:04.045Z,8.98
2022-07-30T06:55:30.652Z,8.18
2022-07-30T06:57:57.352Z,11.75
2022-07-30T07:00:24.461Z,10.52
2022-07-30T07:02:51.625Z,10.73
2022-07-30T07:05:18.800Z,10.65
2022-07-30T07:07:57.807Z,8.07
2022-07-30T07:10:26.295Z,12.73
2022-07-30T07:12:53.447Z,10.82
2022-07-30T07:15:22.467Z,13.77
2022-07-30T07:18:03.638Z,10.65
2022-07-30T07:20:30.743Z,11.13
2022-07-30T07:22:57.786Z,10.82
2022-07-30T07:25:24.977Z,11.55
2022-07-30T07:28:12.280Z,11.13
2022-07-30T07:30:39.203Z,12.40
2022-07-30T07:33:06.298Z,12.10
2022-07-30T07:35:45.467Z,11.70
2022-07-30T07:38:17.548Z,11.70
2022-07-30T07:40:44.683Z,11.40
2022-07-30T07:43:12.137Z,12.07
2022-07-30T07:45:39.509Z,13.70
2022-07-30T07:48:06.714Z,13.75
2022-07-30T07:50:33.956Z,14.40
2022-07-30T07:53:01.121Z,12.10
2022-07-30T07:55:28.351Z,15.25
2022-07-30T07:57:58.877Z,10.70
2022-07-30T08:00:27.035Z,11.63
2022-07-30T08:02:54.474Z,13.93
2022-07-30T08:05:21.594Z,12.35
2022-07-30T08:07:48.885Z,13.10
2022-07-30T08:10:16.147Z,9.35
2022-07-30T08:12:43.572Z,11.98
2022-07-30T08:15:10.940Z,9.60
2022-07-30T08:17:44.645Z,12.40
2022-07-30T08:20:12.776Z,9.38
2022-07-30T08:22:40.296Z,10.63
2022-07-30T08:25:07.958Z,6.68
2022-07-30T08:27:35.232Z,10.25
2022-07-30T08:30:09.285Z,11.63
2022-07-30T08:35:04.278Z,8.30
2022-07-30T08:37:32.233Z,10.45
2022-07-30T08:39:59.704Z,8.68
2022-07-30T08:42:27.582Z,9.30
2022-07-30T08:44:54.967Z,9.88
2022-07-30T08:47:24.293Z,10.70
2022-07-30T08:49:51.586Z,9.60
2022-07-30T08:52:18.937Z,10.30
2022-07-30T08:54:46.399Z,8.57
2022-07-30T08:57:13.851Z,12.10
2022-07-30T08:59:59.340Z,10.60
2022-07-30T09:02:29.598Z,10.45
2022-07-30T09:04:57.016Z,10.38
2022-07-30T09:07:24.374Z,9.77
2022-07-30T09:09:51.698Z,9.02
2022-07-30T09:12:30.887Z,8.43
2022-07-30T09:15:17.426Z,5.45
2022-07-30T09:17:50.689Z,8.18
2022-07-30T09:20:18.292Z,7.28
2022-07-30T09:22:46.940Z,7.80
2022-07-30T09:25:14.167Z,6.60
2022-07-30T09:27:45.047Z,8.52
2022-07-30T09:30:12.352Z,9.02
2022-07-30T09:32:48.191Z,8.82
2022-07-30T09:35:15.555Z,7.32
2022-07-30T09:37:42.633Z,7.68
2022-07-30T09:40:13.512Z,7.32
2022-07-30T09:42:40.712Z,7.55
2022-07-30T09:45:09.054Z,9.23
2022-07-30T09:47:39.570Z,7.03
2022-07-30T09:50:10.963Z,7.20
2022-07-30T09:52:44.276Z,7.97
2022-07-30T09:55:16.052Z,4.85
2022-07-30T09:57:57.764Z,7.97
2022-07-30T10:00:27.021Z,7.50
2022-07-30T10:02:54.857Z,7.85
2022-07-30T10:05:24.251Z,8.90
2022-07-30T10:07:52.629Z,7.88
2022-07-30T10:10:20.880Z,4.60
2022-07-30T10:12:51.202Z,6.65
2022-07-30T10:15:20.397Z,4.47
2022-07-30T10:17:49.403Z,4.50
2022-07-30T10:20:17.819Z,4.25
2022-07-30T10:22:47.084Z,3.13
2022-07-30T10:25:18.890Z,5.20
2022-07-30T10:27:48.429Z,4.15
2022-07-30T10:30:16.053Z,6.45
2022-07-30T10:32:44.425Z,8.25
2022-07-30T10:35:11.982Z,6.80
2022-07-30T10:38:00.197Z,4.75
2022-07-30T10:40:30.659Z,5.22
2022-07-30T10:43:07.063Z,3.92
2022-07-30T10:45:47.537Z,4.78
2022-07-30T10:48:16.685Z,6.53
2022-07-30T10:50:53.309Z,4.53
2022-07-30T10:53:33.478Z,5.05
2022-07-30T10:56:13.858Z,5.25
2022-07-30T10:59:00.223Z,4.38
2022-07-30T11:01:51.808Z,4.90
2022-07-30T11:04:25.783Z,7.20
2022-07-30T11:07:17.310Z,6.15
2022-07-30T11:09:45.201Z,4.72
2022-07-30T11:12:54.816Z,4.97
2022-07-30T11:15:22.579Z,6.35
2022-07-30T11:17:59.126Z,4.22
2022-07-30T11:20:26.743Z,3.47
2022-07-30T11:22:53.976Z,7.47
2022-07-30T11:25:50.285Z,4.88
2022-07-30T11:28:49.250Z,8.05
2022-07-30T11:32:07.496Z,6.10
2022-07-30T11:34:33.072Z,5.82
2022-07-30T11:37:18.353Z,3.85
2022-07-30T11:39:55.129Z,5.10
2022-07-30T11:42:26.959Z,7.32
2022-07-30T11:45:06.938Z,5.97
2022-07-30T11:47:34.085Z,8.32
2022-07-30T11:50:01.055Z,4.78
2022-07-30T11:52:27.850Z,3.80
2022-07-30T11:54:55.388Z,6.30
2022-07-30T11:57:40.120Z,7.47
2022-07-30T12:00:08.212Z,4.60
2022-07-30T12:02:34.952Z,4.20
2022-07-30T12:05:01.826Z,4.63
2022-07-30T12:07:28.536Z,4.60
2022-07-30T12:10:27.742Z,3.63
2022-07-30T12:13:12.469Z,4.13
2022-07-30T12:15:43.722Z,4.55
2022-07-30T12:18:29.477Z,3.72
2022-07-30T12:20:59.561Z,3.28
2022-07-30T12:23:27.353Z,5.07
2022-07-30T12:25:54.822Z,5.40
2022-07-30T12:28:26.022Z,2.72
2022-07-30T12:30:53.825Z,4.55
2022-07-30T12:33:21.220Z,3.22
2022-07-30T12:35:49.624Z,2.50
2022-07-30T12:38:18.025Z,2.97
2022-07-30T12:40:54.353Z,2.65
2022-07-30T12:43:40.034Z,2.10
2022-07-30T12:46:09.711Z,3.42
2022-07-30T12:48:39.268Z,3.05
2022-07-30T12:51:10.947Z,4.25
2022-07-30T12:53:38.056Z,2.83
2022-07-30T12:56:13.098Z,3.03
2022-07-30T12:58:40.603Z,3.55
2022-07-30T13:01:08.195Z,2.80
2022-07-30T13:03:41.437Z,3.20
2022-07-30T13:06:23.466Z,5.60
2022-07-30T13:08:57.889Z,2.97
2022-07-30T13:11:26.234Z,3.47
2022-07-30T13:13:53.764Z,5.13
2022-07-30T13:16:21.439Z,2.60
2022-07-30T13:18:48.670Z,3.13
2022-07-30T13:21:16.116Z,4.45
2022-07-30T13:23:43.287Z,3.85
2022-07-30T13:26:10.746Z,5.45
2022-07-30T13:28:37.925Z,4.05
2022-07-30T13:31:05.146Z,5.20
2022-07-30T13:33:32.252Z,4.90
2022-07-30T13:35:59.362Z,5.25
2022-07-30T13:38:27.044Z,5.32
2022-07-30T13:40:59.096Z,3.85
2022-07-30T13:43:29.123Z,2.78
2022-07-30T13:45:59.958Z,3.00
2022-07-30T13:48:27.789Z,2.53
2022-07-30T13:50:54.907Z,3.47
2022-07-30T13:53:22.130Z,3.10
2022-07-30T13:55:49.309Z,4.75
2022-07-30T13:58:16.579Z,3.65
2022-07-30T14:00:45.305Z,3.85
2022-07-30T14:03:12.752Z,4.50
2022-07-30T14:05:42.233Z,4.10
2022-07-30T14:08:10.182Z,2.22
2022-07-30T14:10:37.536Z,2.15
2022-07-30T14:13:05.985Z,3.10
2022-07-30T14:15:33.659Z,3.53
2022-07-30T14:18:01.289Z,3.13
2022-07-30T14:20:28.992Z,3.88
2022-07-30T14:22:56.866Z,2.95
2022-07-30T14:25:23.676Z,4.20
2022-07-30T14:27:50.394Z,5.78
2022-07-30T14:30:17.061Z,4.68
2022-07-30T14:32:44.891Z,2.90
2022-07-30T14:35:11.913Z,4.35
2022-07-30T14:37:40.180Z,3.58
2022-07-30T14:40:10.116Z,3.58
2022-07-30T14:42:37.047Z,3.38
2022-07-30T14:45:04.897Z,4.57
2022-07-30T14:47:31.750Z,3.88
2022-07-30T14:49:58.704Z,3.25
2022-07-30T14:52:25.879Z,5.05
2022-07-30T14:54:53.117Z,6.60
2022-07-30T14:57:20.555Z,2.25
2022-07-30T14:59:47.171Z,3.72
2022-07-30T15:02:14.008Z,6.78
2022-07-30T15:04:40.761Z,3.22
2022-07-30T15:07:07.466Z,2.90
2022-07-30T15:09:34.248Z,3.10
2022-07-30T15:12:08.721Z,3.50
2022-07-30T15:14:40.368Z,2.85
2022-07-30T15:17:08.272Z,2.08
2022-07-30T15:19:35.083Z,2.53
2022-07-30T15:22:02.674Z,4.25
2022-07-30T15:24:30.045Z,2.50
2022-07-30T15:26:56.772Z,2.45
2022-07-30T15:29:27.155Z,3.85
2022-07-30T15:31:54.337Z,2.33
2022-07-30T15:34:21.009Z,4.53
2022-07-30T15:36:47.792Z,4.38
2022-07-30T15:39:15.531Z,3.40
2022-07-30T15:41:42.585Z,3.30
2022-07-30T15:44:09.331Z,3.80
2022-07-30T15:46:36.186Z,5.40
2022-07-30T15:49:03.088Z,5.25
2022-07-30T15:51:31.768Z,3.25
2022-07-30T15:53:58.442Z,2.67
2022-07-30T15:56:26.414Z,2.75
2022-07-30T15:58:53.242Z,4.80
2022-07-30T16:01:20.289Z,2.97
2022-07-30T16:03:47.096Z,3.33
2022-07-30T16:06:14.548Z,2.22
2022-07-30T16:08:41.265Z,2.15
2022-07-30T16:11:07.969Z,3.13
2022-07-30T16:13:39.951Z,2.65
2022-07-30T16:16:07.018Z,5.50
2022-07-30T16:18:33.921Z,3.70
2022-07-30T16:21:01.264Z,2.00
2022-07-30T16:23:28.429Z,2.13
2022-07-30T16:26:03.479Z,3.35
2022-07-30T16:28:30.143Z,4.43
2022-07-30T16:30:57.261Z,2.65
2022-07-30T16:33:24.426Z,2.50
2022-07-30T16:35:51.700Z,2.67
2022-07-30T16:38:23.299Z,3.83
2022-07-30T16:40:50.520Z,2.03
2022-07-30T16:43:19.722Z,2.50
2022-07-30T16:45:47.294Z,1.85
2022-07-30T16:48:14.040Z,2.72
2022-07-30T16:50:42.505Z,2.75
2022-07-30T16:53:13.713Z,4.07
2022-07-30T16:55:41.646Z,2.53
2022-07-30T16:58:08.610Z,4.85
2022-07-30T17:00:35.593Z,2.25
2022-07-30T17:03:02.508Z,3.17
2022-07-30T17:05:29.245Z,3.17
2022-07-30T17:07:56.030Z,4.50
2022-07-30T17:10:25.641Z,3.40
2022-07-30T17:12:53.484Z,3.20
2022-07-30T17:15:20.313Z,8.60
2022-07-30T17:17:59.028Z,3.53
2022-07-30T17:20:25.679Z,4.78
2022-07-30T17:22:55.162Z,4.55
2022-07-30T17:25:27.389Z,2.83
2022-07-30T17:27:55.202Z,2.80
2022-07-30T17:30:23.217Z,2.63
2022-07-30T17:32:50.661Z,3.70
2022-07-30T17:35:17.770Z,2.92
2022-07-30T17:37:44.637Z,3.30
2022-07-30T17:40:26.709Z,4.68
2022-07-30T17:43:03.042Z,3.42
2022-07-30T17:45:34.701Z,3.37
2022-07-30T17:48:01.916Z,6.38
2022-07-30T17:50:29.703Z,4.47
2022-07-30T17:52:56.675Z,4.72
2022-07-30T17:55:23.775Z,5.18
2022-07-30T17:57:50.527Z,3.17
2022-07-30T18:00:17.803Z,4.75
2022-07-30T18:02:45.154Z,3.67
2022-07-30T18:05:15.347Z,5.00
2022-07-30T18:07:43.082Z,6.10
2022-07-30T18:10:10.367Z,4.25
2022-07-30T18:12:38.305Z,2.33
2022-07-30T18:15:06.325Z,2.97
2022-07-30T18:17:33.265Z,3.90
2022-07-30T18:20:00.034Z,3.58
2022-07-30T18:22:29.711Z,4.90
2022-07-30T18:25:00.487Z,5.35
2022-07-30T18:27:27.854Z,10.57
2022-07-30T18:29:54.528Z,5.78
2022-07-30T18:32:21.980Z,5.90
2022-07-30T18:34:48.864Z,6.80
2022-07-30T18:37:15.661Z,12.45
2022-07-30T18:39:42.320Z,9.05
2022-07-30T18:42:09.291Z,12.00
2022-07-30T18:44:35.996Z,9.20
2022-07-30T18:47:02.717Z,6.75
2022-07-30T18:49:37.764Z,7.93
2022-07-30T18:52:06.474Z,8.98
2022-07-30T18:54:33.720Z,10.45
2022-07-30T18:57:00.489Z,7.78
2022-07-30T18:59:27.193Z,6.38
2022-07-30T19:01:54.055Z,7.57
2022-07-30T19:04:20.736Z,9.02
2022-07-30T19:06:47.642Z,10.15
2022-07-30T19:09:17.552Z,9.52
2022-07-30T19:11:46.029Z,8.85
2022-07-30T19:14:13.956Z,9.25
2022-07-30T19:16:41.836Z,10.50
2022-07-30T19:19:09.221Z,9.20
2022-07-30T19:21:36.262Z,8.90
2022-07-30T19:24:03.781Z,10.10
2022-07-30T19:26:30.691Z,8.00
2022-07-30T19:28:57.612Z,10.98
2022-07-30T19:31:24.437Z,12.43
2022-07-30T19:33:51.127Z,9.88
2022-07-30T19:36:21.261Z,11.30
2022-07-30T19:38:49.935Z,11.07
2022-07-30T19:41:16.916Z,11.18
2022-07-30T19:43:57.856Z,9.07
2022-07-30T19:46:25.309Z,11.65
2022-07-30T19:48:52.164Z,13.77
2022-07-30T19:51:20.450Z,18.42
2022-07-30T19:53:47.919Z,15.48
2022-07-30T19:56:14.615Z,16.52
2022-07-30T19:58:41.328Z,18.95
2022-07-30T20:01:08.805Z,16.60
2022-07-30T20:03:36.978Z,15.27
2022-07-30T20:06:07.222Z,15.90
2022-07-30T20:08:37.686Z,18.23
2022-07-30T20:11:06.904Z,17.95
2022-07-30T20:13:44.969Z,19.08
2022-07-30T20:16:14.174Z,17.40
2022-07-30T20:18:42.167Z,17.42
2022-07-30T20:21:14.648Z,17.10
2022-07-30T20:23:42.877Z,19.10
2022-07-30T20:26:13.583Z,14.85
2022-07-30T20:28:47.866Z,14.75
2022-07-30T20:31:19.426Z,15.50
2022-07-30T20:33:50.132Z,13.57
2022-07-30T20:36:18.135Z,13.35
2022-07-30T20:38:47.031Z,14.77
2022-07-30T20:41:14.700Z,12.27
2022-07-30T20:43:51.719Z,12.43
2022-07-30T20:46:23.098Z,16.42
2022-07-30T20:48:51.307Z,13.13
2022-07-30T20:51:18.042Z,14.52
2022-07-30T20:53:45.174Z,13.07
2022-07-30T20:56:13.582Z,13.70
2022-07-30T20:58:46.072Z,10.80
2022-07-30T21:01:17.651Z,12.00
2022-07-30T21:03:47.761Z,13.43
2022-07-30T21:06:15.876Z,10.05
2022-07-30T21:08:42.588Z,11.18
2022-07-30T21:11:09.794Z,12.07
2022-07-30T21:13:36.751Z,12.07
2022-07-30T21:16:03.949Z,11.88
2022-07-30T21:18:42.892Z,12.32
2022-07-30T21:23:44.427Z,12.10
2022-07-30T21:26:13.673Z,10.90
2022-07-30T21:28:40.711Z,10.32
2022-07-30T21:31:07.618Z,11.02
2022-07-30T21:33:38.553Z,11.18
2022-07-30T21:36:10.529Z,12.38
2022-07-30T21:38:41.884Z,14.82
2022-07-30T21:41:13.832Z,12.65
2022-07-30T21:43:41.677Z,13.15
2022-07-30T21:46:08.626Z,14.02
2022-07-30T21:48:37.215Z,13.40
2022-07-30T21:51:06.395Z,11.93
2022-07-30T21:53:45.148Z,12.98
2022-07-30T21:56:13.658Z,13.90
2022-07-30T21:58:41.232Z,12.98
2022-07-30T22:01:17.607Z,11.07
2022-07-30T22:04:03.680Z,13.52
2022-07-30T22:06:34.843Z,13.75
2022-07-30T22:09:07.339Z,13.07
2022-07-30T22:11:45.413Z,11.05
2022-07-30T22:14:13.540Z,10.93
2022-07-30T22:16:46.254Z,13.57
2022-07-30T22:19:14.327Z,12.90
2022-07-30T22:21:41.867Z,12.43
2022-07-30T22:24:08.615Z,12.50
2022-07-30T22:26:35.327Z,13.52
2022-07-30T22:29:02.376Z,11.90
2022-07-30T22:31:30.815Z,11.60
2022-07-30T22:34:06.100Z,11.77
2022-07-30T22:36:38.372Z,10.00
2022-07-30T22:39:08.770Z,11.20
2022-07-30T22:41:35.715Z,11.68
2022-07-30T22:44:03.596Z,12.13
2022-07-30T22:46:31.838Z,10.75
2022-07-30T22:48:59.384Z,10.20
2022-07-30T22:52:01.355Z,10.43
2022-07-30T22:54:14.276Z,12.20
2022-07-30T22:56:42.491Z,13.18
2022-07-30T22:59:12.951Z,12.65
2022-07-30T23:01:43.365Z,11.48
2022-07-30T23:04:10.381Z,11.75
2022-07-30T23:06:37.362Z,11.15
2022-07-30T23:09:07.793Z,12.38
2022-07-30T23:11:38.721Z,10.13
2022-07-30T23:14:06.579Z,11.20
2022-07-30T23:16:33.226Z,10.75
2022-07-30T23:18:59.866Z,9.35
2022-07-30T23:21:26.562Z,10.00
2022-07-30T23:23:53.536Z,9.95
2022-07-30T23:26:20.225Z,9.75
2022-07-30T23:28:47.288Z,10.07
2022-07-30T23:31:14.159Z,12.85
2022-07-30T23:33:40.832Z,10.30
2022-07-30T23:36:09.045Z,10.55
2022-07-30T23:38:36.905Z,11.55
2022-07-30T23:41:05.353Z,12.30
2022-07-30T23:43:32.631Z,11.27
2022-07-30T23:45:59.698Z,10.15
2022-07-30T23:48:26.752Z,9.27
2022-07-30T23:50:53.811Z,9.77
2022-07-30T23:53:20.816Z,11.65
2022-07-30T23:55:49.101Z,11.63
2022-07-30T23:58:16.369Z,9.38
